sensor_id;sensor_type;location;lat;lon;timestamp;P1;durP1;ratioP1;P2;durP2;ratioP2
22160;SDS011;49035;48.812;11.762;2022-10-18T00:00:29;13.23;;;10.63;;
22160;SDS011;49035;48.812;11.762;2022-10-18T00:02:54;12.90;;;11.18;;
22160;SDS011;49035;48.812;11.762;2022-10-18T00:05:20;15.15;;;10.63;;
22160;SDS011;49035;48.812;11.762;2022-10-18T00:07:46;16.73;;;11.15;;
22160;SDS011;49035;48.812;11.762;2022-10-18T00:10:11;12.15;;;10.75;;
22160;SDS011;49035;48.812;11.762;2022-10-18T00:12:37;14.88;;;10.75;;
22160;SDS011;49035;48.812;11.762;2022-10-18T00:15:04;15.45;;;10.82;;
22160;SDS011;49035;48.812;11.762;2022-10-18T00:17:32;13.80;;;10.80;;
22160;SDS011;49035;48.812;11.762;2022-10-18T00:19:59;12.20;;;10.30;;
22160;SDS011;49035;48.812;11.762;2022-10-18T00:22:24;15.77;;;11.10;;
22160;SDS011;49035;48.812;11.762;2022-10-18T00:24:50;16.10;;;11.82;;
22160;SDS011;49035;48.812;11.762;2022-10-18T00:27:16;36.10;;;12.68;;
22160;SDS011;49035;48.812;11.762;2022-10-18T00:29:42;14.50;;;11.43;;
22160;SDS011;49035;48.812;11.762;2022-10-18T00:32:07;13.95;;;11.02;;
22160;SDS011;49035;48.812;11.762;2022-10-18T00:34:33;18.98;;;11.95;;
22160;SDS011;49035;48.812;11.762;2022-10-18T00:36:58;14.98;;;11.60;;
22160;SDS011;49035;48.812;11.762;2022-10-18T00:39:24;18.95;;;10.65;;
22160;SDS011;49035;48.812;11.762;2022-10-18T00:41:50;16.10;;;11.63;;
22160;SDS011;49035;48.812;11.762;2022-10-18T00:46:42;15.63;;;10.93;;
22160;SDS011;49035;48.812;11.762;2022-10-18T00:52:01;19.52;;;12.50;;
22160;SDS011;49035;48.812;11.762;2022-10-18T00:54:33;47.05;;;13.82;;
22160;SDS011;49035;48.812;11.762;2022-10-18T00:57:02;25.48;;;12.95;;
22160;SDS011;49035;48.812;11.762;2022-10-18T00:59:29;15.25;;;11.80;;
22160;SDS011;49035;48.812;11.762;2022-10-18T01:01:55;45.03;;;14.35;;
22160;SDS011;49035;48.812;11.762;2022-10-18T01:04:21;15.77;;;11.63;;
22160;SDS011;49035;48.812;11.762;2022-10-18T01:09:29;20.63;;;12.25;;
22160;SDS011;49035;48.812;11.762;2022-10-18T01:15:10;20.05;;;11.93;;
22160;SDS011;49035;48.812;11.762;2022-10-18T01:23:18;12.85;;;9.68;;
22160;SDS011;49035;48.812;11.762;2022-10-18T01:26:15;14.35;;;9.75;;
22160;SDS011;49035;48.812;11.762;2022-10-18T01:31:20;13.65;;;9.40;;
22160;SDS011;49035;48.812;11.762;2022-10-18T01:34:13;15.75;;;10.48;;
22160;SDS011;49035;48.812;11.762;2022-10-18T01:36:46;15.55;;;10.25;;
22160;SDS011;49035;48.812;11.762;2022-10-18T01:39:17;14.93;;;11.40;;
22160;SDS011;49035;48.812;11.762;2022-10-18T01:41:48;14.63;;;10.25;;
22160;SDS011;49035;48.812;11.762;2022-10-18T01:44:18;14.80;;;10.20;;
22160;SDS011;49035;48.812;11.762;2022-10-18T01:46:47;14.80;;;10.23;;
22160;SDS011;49035;48.812;11.762;2022-10-18T01:49:14;16.33;;;10.73;;
22160;SDS011;49035;48.812;11.762;2022-10-18T01:51:40;15.02;;;10.32;;
22160;SDS011;49035;48.812;11.762;2022-10-18T01:54:06;13.43;;;10.05;;
22160;SDS011;49035;48.812;11.762;2022-10-18T01:56:40;13.45;;;9.93;;
22160;SDS011;49035;48.812;11.762;2022-10-18T02:02:32;13.95;;;10.40;;
22160;SDS011;49035;48.812;11.762;2022-10-18T02:05:23;26.17;;;11.05;;
22160;SDS011;49035;48.812;11.762;2022-10-18T02:08:24;16.98;;;9.63;;
22160;SDS011;49035;48.812;11.762;2022-10-18T02:11:14;13.25;;;9.80;;
22160;SDS011;49035;48.812;11.762;2022-10-18T02:13:48;16.70;;;10.32;;
22160;SDS011;49035;48.812;11.762;2022-10-18T02:19:11;20.25;;;10.98;;
22160;SDS011;49035;48.812;11.762;2022-10-18T02:21:48;16.52;;;10.88;;
22160;SDS011;49035;48.812;11.762;2022-10-18T02:24:15;17.27;;;11.40;;
22160;SDS011;49035;48.812;11.762;2022-10-18T02:26:43;16.55;;;12.05;;
22160;SDS011;49035;48.812;11.762;2022-10-18T02:29:08;17.33;;;10.32;;
22160;SDS011;49035;48.812;11.762;2022-10-18T02:31:40;13.50;;;10.25;;
22160;SDS011;49035;48.812;11.762;2022-10-18T02:36:50;16.40;;;10.93;;
22160;SDS011;49035;48.812;11.762;2022-10-18T02:39:25;14.43;;;10.48;;
22160;SDS011;49035;48.812;11.762;2022-10-18T02:41:57;16.13;;;11.13;;
22160;SDS011;49035;48.812;11.762;2022-10-18T02:44:23;16.75;;;10.68;;
22160;SDS011;49035;48.812;11.762;2022-10-18T02:46:49;17.13;;;11.52;;
22160;SDS011;49035;48.812;11.762;2022-10-18T02:49:15;17.27;;;11.98;;
22160;SDS011;49035;48.812;11.762;2022-10-18T02:51:41;24.02;;;12.90;;
22160;SDS011;49035;48.812;11.762;2022-10-18T02:54:07;17.48;;;11.73;;
22160;SDS011;49035;48.812;11.762;2022-10-18T02:56:33;14.63;;;11.15;;
22160;SDS011;49035;48.812;11.762;2022-10-18T02:58:59;17.33;;;11.85;;
22160;SDS011;49035;48.812;11.762;2022-10-18T03:01:25;22.67;;;12.73;;
22160;SDS011;49035;48.812;11.762;2022-10-18T03:03:51;19.10;;;11.50;;
22160;SDS011;49035;48.812;11.762;2022-10-18T03:06:17;17.75;;;11.50;;
22160;SDS011;49035;48.812;11.762;2022-10-18T03:08:42;23.92;;;12.68;;
22160;SDS011;49035;48.812;11.762;2022-10-18T03:11:08;16.60;;;11.75;;
22160;SDS011;49035;48.812;11.762;2022-10-18T03:13:34;16.35;;;11.98;;
22160;SDS011;49035;48.812;11.762;2022-10-18T03:15:59;18.95;;;11.90;;
22160;SDS011;49035;48.812;11.762;2022-10-18T03:18:25;29.63;;;13.13;;
22160;SDS011;49035;48.812;11.762;2022-10-18T03:20:51;18.83;;;11.38;;
22160;SDS011;49035;48.812;11.762;2022-10-18T03:23:17;21.98;;;12.40;;
22160;SDS011;49035;48.812;11.762;2022-10-18T03:25:43;19.38;;;11.95;;
22160;SDS011;49035;48.812;11.762;2022-10-18T03:28:09;16.25;;;10.55;;
22160;SDS011;49035;48.812;11.762;2022-10-18T03:30:34;19.95;;;10.98;;
22160;SDS011;49035;48.812;11.762;2022-10-18T03:33:00;17.42;;;12.40;;
22160;SDS011;49035;48.812;11.762;2022-10-18T03:35:25;17.05;;;11.43;;
22160;SDS011;49035;48.812;11.762;2022-10-18T03:37:51;15.93;;;11.55;;
22160;SDS011;49035;48.812;11.762;2022-10-18T03:40:16;21.42;;;11.70;;
22160;SDS011;49035;48.812;11.762;2022-10-18T03:42:42;17.02;;;11.45;;
22160;SDS011;49035;48.812;11.762;2022-10-18T03:45:08;24.67;;;12.00;;
22160;SDS011;49035;48.812;11.762;2022-10-18T03:47:33;16.10;;;10.45;;
22160;SDS011;49035;48.812;11.762;2022-10-18T03:49:59;15.38;;;10.40;;
22160;SDS011;49035;48.812;11.762;2022-10-18T03:52:25;15.27;;;10.30;;
22160;SDS011;49035;48.812;11.762;2022-10-18T03:54:50;17.20;;;11.20;;
22160;SDS011;49035;48.812;11.762;2022-10-18T03:57:16;27.85;;;12.23;;
22160;SDS011;49035;48.812;11.762;2022-10-18T03:59:41;21.02;;;11.70;;
22160;SDS011;49035;48.812;11.762;2022-10-18T04:02:07;19.10;;;10.95;;
22160;SDS011;49035;48.812;11.762;2022-10-18T04:04:33;17.40;;;11.45;;
22160;SDS011;49035;48.812;11.762;2022-10-18T04:06:58;16.50;;;11.10;;
22160;SDS011;49035;48.812;11.762;2022-10-18T04:09:24;17.08;;;11.43;;
22160;SDS011;49035;48.812;11.762;2022-10-18T04:11:50;18.95;;;11.93;;
22160;SDS011;49035;48.812;11.762;2022-10-18T04:14:16;18.08;;;11.90;;
22160;SDS011;49035;48.812;11.762;2022-10-18T04:16:42;21.75;;;12.65;;
22160;SDS011;49035;48.812;11.762;2022-10-18T04:19:07;35.72;;;12.65;;
22160;SDS011;49035;48.812;11.762;2022-10-18T04:21:33;34.83;;;13.70;;
22160;SDS011;49035;48.812;11.762;2022-10-18T04:23:59;19.10;;;12.60;;
22160;SDS011;49035;48.812;11.762;2022-10-18T04:26:25;19.02;;;11.65;;
22160;SDS011;49035;48.812;11.762;2022-10-18T04:28:50;21.40;;;11.73;;
22160;SDS011;49035;48.812;11.762;2022-10-18T04:31:16;16.90;;;11.52;;
22160;SDS011;49035;48.812;11.762;2022-10-18T04:33:41;16.40;;;11.43;;
22160;SDS011;49035;48.812;11.762;2022-10-18T04:36:07;21.40;;;12.27;;
22160;SDS011;49035;48.812;11.762;2022-10-18T04:38:33;18.65;;;11.00;;
22160;SDS011;49035;48.812;11.762;2022-10-18T04:41:01;20.60;;;11.68;;
22160;SDS011;49035;48.812;11.762;2022-10-18T04:43:27;19.23;;;12.02;;
22160;SDS011;49035;48.812;11.762;2022-10-18T04:45:53;18.15;;;12.02;;
22160;SDS011;49035;48.812;11.762;2022-10-18T04:48:18;15.45;;;10.98;;
22160;SDS011;49035;48.812;11.762;2022-10-18T04:50:46;16.10;;;11.23;;
22160;SDS011;49035;48.812;11.762;2022-10-18T04:53:14;15.60;;;10.68;;
22160;SDS011;49035;48.812;11.762;2022-10-18T04:55:58;18.35;;;11.45;;
22160;SDS011;49035;48.812;11.762;2022-10-18T04:58:24;23.73;;;12.90;;
22160;SDS011;49035;48.812;11.762;2022-10-18T05:00:49;26.23;;;14.02;;
22160;SDS011;49035;48.812;11.762;2022-10-18T05:03:15;23.33;;;13.68;;
22160;SDS011;49035;48.812;11.762;2022-10-18T05:05:41;21.90;;;13.48;;
22160;SDS011;49035;48.812;11.762;2022-10-18T05:08:07;25.95;;;16.92;;
22160;SDS011;49035;48.812;11.762;2022-10-18T05:10:32;21.73;;;15.07;;
22160;SDS011;49035;48.812;11.762;2022-10-18T05:12:58;25.70;;;14.93;;
22160;SDS011;49035;48.812;11.762;2022-10-18T05:15:24;35.70;;;17.08;;
22160;SDS011;49035;48.812;11.762;2022-10-18T05:17:49;32.88;;;14.90;;
22160;SDS011;49035;48.812;11.762;2022-10-18T05:20:15;25.63;;;13.63;;
22160;SDS011;49035;48.812;11.762;2022-10-18T05:22:40;25.17;;;12.38;;
22160;SDS011;49035;48.812;11.762;2022-10-18T05:25:06;23.52;;;12.40;;
22160;SDS011;49035;48.812;11.762;2022-10-18T05:27:32;24.58;;;13.70;;
22160;SDS011;49035;48.812;11.762;2022-10-18T05:29:59;28.25;;;15.23;;
22160;SDS011;49035;48.812;11.762;2022-10-18T05:32:24;28.85;;;14.77;;
22160;SDS011;49035;48.812;11.762;2022-10-18T05:34:50;25.95;;;13.63;;
22160;SDS011;49035;48.812;11.762;2022-10-18T05:37:16;22.73;;;12.75;;
22160;SDS011;49035;48.812;11.762;2022-10-18T05:39:42;24.85;;;13.10;;
22160;SDS011;49035;48.812;11.762;2022-10-18T05:42:08;19.67;;;12.27;;
22160;SDS011;49035;48.812;11.762;2022-10-18T05:44:34;22.95;;;12.70;;
22160;SDS011;49035;48.812;11.762;2022-10-18T05:46:59;29.23;;;13.18;;
22160;SDS011;49035;48.812;11.762;2022-10-18T05:49:25;21.98;;;13.25;;
22160;SDS011;49035;48.812;11.762;2022-10-18T05:51:50;29.23;;;15.23;;
22160;SDS011;49035;48.812;11.762;2022-10-18T05:54:16;22.52;;;14.13;;
22160;SDS011;49035;48.812;11.762;2022-10-18T05:56:41;26.63;;;13.95;;
22160;SDS011;49035;48.812;11.762;2022-10-18T05:59:07;30.38;;;13.52;;
22160;SDS011;49035;48.812;11.762;2022-10-18T06:01:39;54.67;;;14.32;;
22160;SDS011;49035;48.812;11.762;2022-10-18T06:04:06;26.23;;;13.27;;
22160;SDS011;49035;48.812;11.762;2022-10-18T06:06:34;28.50;;;12.73;;
22160;SDS011;49035;48.812;11.762;2022-10-18T06:09:00;32.85;;;13.35;;
22160;SDS011;49035;48.812;11.762;2022-10-18T06:11:27;39.83;;;13.95;;
22160;SDS011;49035;48.812;11.762;2022-10-18T06:13:53;28.50;;;12.48;;
22160;SDS011;49035;48.812;11.762;2022-10-18T06:16:21;28.60;;;13.57;;
22160;SDS011;49035;48.812;11.762;2022-10-18T06:18:48;27.75;;;14.70;;
22160;SDS011;49035;48.812;11.762;2022-10-18T06:21:16;34.17;;;13.20;;
22160;SDS011;49035;48.812;11.762;2022-10-18T06:23:42;19.85;;;10.82;;
22160;SDS011;49035;48.812;11.762;2022-10-18T06:26:09;50.88;;;11.15;;
22160;SDS011;49035;48.812;11.762;2022-10-18T06:28:35;21.85;;;9.48;;
22160;SDS011;49035;48.812;11.762;2022-10-18T06:31:02;63.97;;;11.73;;
22160;SDS011;49035;48.812;11.762;2022-10-18T06:33:29;42.72;;;11.52;;
22160;SDS011;49035;48.812;11.762;2022-10-18T06:36:00;17.65;;;10.00;;
22160;SDS011;49035;48.812;11.762;2022-10-18T06:38:28;19.20;;;10.68;;
22160;SDS011;49035;48.812;11.762;2022-10-18T06:40:54;18.70;;;10.65;;
22160;SDS011;49035;48.812;11.762;2022-10-18T06:43:20;23.40;;;12.55;;
22160;SDS011;49035;48.812;11.762;2022-10-18T06:45:47;21.33;;;12.20;;
22160;SDS011;49035;48.812;11.762;2022-10-18T06:48:13;20.27;;;11.45;;
22160;SDS011;49035;48.812;11.762;2022-10-18T06:50:38;20.08;;;11.27;;
22160;SDS011;49035;48.812;11.762;2022-10-18T06:53:04;19.52;;;11.30;;
22160;SDS011;49035;48.812;11.762;2022-10-18T06:55:32;22.55;;;11.32;;
22160;SDS011;49035;48.812;11.762;2022-10-18T06:57:58;21.77;;;11.60;;
22160;SDS011;49035;48.812;11.762;2022-10-18T07:00:24;14.40;;;9.93;;
22160;SDS011;49035;48.812;11.762;2022-10-18T07:02:49;18.42;;;12.05;;
22160;SDS011;49035;48.812;11.762;2022-10-18T07:05:15;15.50;;;10.82;;
22160;SDS011;49035;48.812;11.762;2022-10-18T07:07:40;21.20;;;10.88;;
22160;SDS011;49035;48.812;11.762;2022-10-18T07:10:06;22.48;;;11.45;;
22160;SDS011;49035;48.812;11.762;2022-10-18T07:12:32;29.13;;;11.95;;
22160;SDS011;49035;48.812;11.762;2022-10-18T07:14:58;22.48;;;11.60;;
22160;SDS011;49035;48.812;11.762;2022-10-18T07:17:23;20.50;;;10.95;;
22160;SDS011;49035;48.812;11.762;2022-10-18T07:19:50;19.85;;;11.02;;
22160;SDS011;49035;48.812;11.762;2022-10-18T07:22:15;22.33;;;11.80;;
22160;SDS011;49035;48.812;11.762;2022-10-18T07:24:41;27.45;;;11.88;;
22160;SDS011;49035;48.812;11.762;2022-10-18T07:27:06;19.00;;;11.25;;
22160;SDS011;49035;48.812;11.762;2022-10-18T07:29:32;26.45;;;12.88;;
22160;SDS011;49035;48.812;11.762;2022-10-18T07:31:58;23.27;;;12.88;;
22160;SDS011;49035;48.812;11.762;2022-10-18T07:34:24;25.27;;;12.57;;
22160;SDS011;49035;48.812;11.762;2022-10-18T07:36:49;19.10;;;12.13;;
22160;SDS011;49035;48.812;11.762;2022-10-18T07:39:15;20.23;;;12.63;;
22160;SDS011;49035;48.812;11.762;2022-10-18T07:41:41;19.73;;;12.15;;
22160;SDS011;49035;48.812;11.762;2022-10-18T07:44:06;27.23;;;13.40;;
22160;SDS011;49035;48.812;11.762;2022-10-18T07:46:32;26.17;;;13.40;;
22160;SDS011;49035;48.812;11.762;2022-10-18T07:48:58;19.67;;;13.35;;
22160;SDS011;49035;48.812;11.762;2022-10-18T07:51:23;27.35;;;14.43;;
22160;SDS011;49035;48.812;11.762;2022-10-18T07:53:50;31.67;;;14.25;;
22160;SDS011;49035;48.812;11.762;2022-10-18T07:56:17;26.25;;;13.82;;
22160;SDS011;49035;48.812;11.762;2022-10-18T07:58:45;29.05;;;14.00;;
22160;SDS011;49035;48.812;11.762;2022-10-18T08:01:18;27.67;;;14.07;;
22160;SDS011;49035;48.812;11.762;2022-10-18T08:03:45;23.92;;;12.73;;
22160;SDS011;49035;48.812;11.762;2022-10-18T08:06:11;32.72;;;15.20;;
22160;SDS011;49035;48.812;11.762;2022-10-18T08:08:40;35.80;;;17.20;;
22160;SDS011;49035;48.812;11.762;2022-10-18T08:11:07;32.78;;;16.17;;
22160;SDS011;49035;48.812;11.762;2022-10-18T08:13:34;28.88;;;16.15;;
22160;SDS011;49035;48.812;11.762;2022-10-18T08:16:08;25.27;;;15.00;;
22160;SDS011;49035;48.812;11.762;2022-10-18T08:18:35;31.38;;;14.73;;
22160;SDS011;49035;48.812;11.762;2022-10-18T08:21:02;27.83;;;14.93;;
22160;SDS011;49035;48.812;11.762;2022-10-18T08:23:29;29.80;;;15.82;;
22160;SDS011;49035;48.812;11.762;2022-10-18T08:25:55;27.67;;;15.20;;
22160;SDS011;49035;48.812;11.762;2022-10-18T08:28:24;26.40;;;15.73;;
22160;SDS011;49035;48.812;11.762;2022-10-18T08:30:50;28.17;;;17.23;;
22160;SDS011;49035;48.812;11.762;2022-10-18T08:33:15;28.55;;;17.45;;
22160;SDS011;49035;48.812;11.762;2022-10-18T08:35:41;31.58;;;17.75;;
22160;SDS011;49035;48.812;11.762;2022-10-18T08:38:06;23.73;;;15.95;;
22160;SDS011;49035;48.812;11.762;2022-10-18T08:40:40;26.95;;;16.48;;
22160;SDS011;49035;48.812;11.762;2022-10-18T08:45:55;25.60;;;15.73;;
22160;SDS011;49035;48.812;11.762;2022-10-18T08:48:29;23.35;;;15.05;;
22160;SDS011;49035;48.812;11.762;2022-10-18T08:50:59;21.23;;;14.43;;
22160;SDS011;49035;48.812;11.762;2022-10-18T08:53:28;23.23;;;14.45;;
22160;SDS011;49035;48.812;11.762;2022-10-18T08:56:15;18.77;;;13.55;;
22160;SDS011;49035;48.812;11.762;2022-10-18T08:58:45;18.13;;;14.23;;
22160;SDS011;49035;48.812;11.762;2022-10-18T09:04:17;16.25;;;13.02;;
22160;SDS011;49035;48.812;11.762;2022-10-18T09:07:04;16.45;;;12.93;;
22160;SDS011;49035;48.812;11.762;2022-10-18T09:26:06;11.00;;;9.18;;
22160;SDS011;49035;48.812;11.762;2022-10-18T09:31:32;12.48;;;9.85;;
22160;SDS011;49035;48.812;11.762;2022-10-18T09:34:39;13.95;;;10.63;;
22160;SDS011;49035;48.812;11.762;2022-10-18T09:37:13;15.95;;;11.38;;
22160;SDS011;49035;48.812;11.762;2022-10-18T09:39:42;15.82;;;10.90;;
22160;SDS011;49035;48.812;11.762;2022-10-18T09:47:55;12.05;;;10.13;;
22160;SDS011;49035;48.812;11.762;2022-10-18T09:50:44;11.02;;;9.85;;
22160;SDS011;49035;48.812;11.762;2022-10-18T09:56:21;12.93;;;9.07;;
22160;SDS011;49035;48.812;11.762;2022-10-18T09:58:50;12.40;;;8.93;;
22160;SDS011;49035;48.812;11.762;2022-10-18T10:01:25;12.45;;;9.15;;
22160;SDS011;49035;48.812;11.762;2022-10-18T10:03:53;12.02;;;9.90;;
22160;SDS011;49035;48.812;11.762;2022-10-18T10:06:29;12.30;;;7.88;;
22160;SDS011;49035;48.812;11.762;2022-10-18T10:09:12;11.88;;;8.25;;
22160;SDS011;49035;48.812;11.762;2022-10-18T10:11:47;9.20;;;7.72;;
22160;SDS011;49035;48.812;11.762;2022-10-18T10:14:17;13.35;;;8.30;;
22160;SDS011;49035;48.812;11.762;2022-10-18T10:16:53;15.27;;;8.82;;
22160;SDS011;49035;48.812;11.762;2022-10-18T10:19:27;10.23;;;7.93;;
22160;SDS011;49035;48.812;11.762;2022-10-18T10:22:06;12.57;;;8.80;;
22160;SDS011;49035;48.812;11.762;2022-10-18T10:24:38;10.43;;;8.93;;
22160;SDS011;49035;48.812;11.762;2022-10-18T10:27:13;12.57;;;10.38;;
22160;SDS011;49035;48.812;11.762;2022-10-18T10:32:13;11.93;;;8.25;;
22160;SDS011;49035;48.812;11.762;2022-10-18T10:34:40;12.50;;;7.70;;
22160;SDS011;49035;48.812;11.762;2022-10-18T10:37:25;9.15;;;7.47;;
22160;SDS011;49035;48.812;11.762;2022-10-18T10:40:12;10.38;;;7.95;;
22160;SDS011;49035;48.812;11.762;2022-10-18T10:45:30;10.20;;;8.02;;
22160;SDS011;49035;48.812;11.762;2022-10-18T10:48:12;11.27;;;7.65;;
22160;SDS011;49035;48.812;11.762;2022-10-18T10:53:45;14.40;;;8.05;;
22160;SDS011;49035;48.812;11.762;2022-10-18T10:56:26;12.73;;;8.10;;
22160;SDS011;49035;48.812;11.762;2022-10-18T10:58:59;13.95;;;7.80;;
22160;SDS011;49035;48.812;11.762;2022-10-18T11:01:46;7.75;;;6.88;;
22160;SDS011;49035;48.812;11.762;2022-10-18T11:04:27;8.55;;;6.82;;
22160;SDS011;49035;48.812;11.762;2022-10-18T11:06:59;10.80;;;7.50;;
22160;SDS011;49035;48.812;11.762;2022-10-18T11:09:42;10.77;;;7.40;;
22160;SDS011;49035;48.812;11.762;2022-10-18T11:22:59;9.07;;;6.38;;
22160;SDS011;49035;48.812;11.762;2022-10-18T11:28:26;12.88;;;6.90;;
22160;SDS011;49035;48.812;11.762;2022-10-18T11:34:09;10.43;;;6.40;;
22160;SDS011;49035;48.812;11.762;2022-10-18T11:50:52;10.23;;;6.10;;
22160;SDS011;49035;48.812;11.762;2022-10-18T11:56:50;8.80;;;5.47;;
22160;SDS011;49035;48.812;11.762;2022-10-18T12:05:30;10.15;;;6.63;;
22160;SDS011;49035;48.812;11.762;2022-10-18T12:08:06;11.02;;;5.07;;
22160;SDS011;49035;48.812;11.762;2022-10-18T12:10:36;6.45;;;4.95;;
22160;SDS011;49035;48.812;11.762;2022-10-18T12:13:05;7.35;;;5.50;;
22160;SDS011;49035;48.812;11.762;2022-10-18T12:15:35;10.18;;;5.65;;
22160;SDS011;49035;48.812;11.762;2022-10-18T12:18:09;6.90;;;5.68;;
22160;SDS011;49035;48.812;11.762;2022-10-18T12:20:47;8.70;;;5.85;;
22160;SDS011;49035;48.812;11.762;2022-10-18T12:26:02;11.98;;;5.45;;
22160;SDS011;49035;48.812;11.762;2022-10-18T12:28:50;7.60;;;5.43;;
22160;SDS011;49035;48.812;11.762;2022-10-18T12:39:28;7.38;;;5.47;;
22160;SDS011;49035;48.812;11.762;2022-10-18T12:42:19;10.48;;;4.90;;
22160;SDS011;49035;48.812;11.762;2022-10-18T12:44:47;6.55;;;5.15;;
22160;SDS011;49035;48.812;11.762;2022-10-18T12:47:20;9.45;;;4.65;;
22160;SDS011;49035;48.812;11.762;2022-10-18T12:49:57;10.68;;;4.30;;
22160;SDS011;49035;48.812;11.762;2022-10-18T12:52:28;9.10;;;4.93;;
22160;SDS011;49035;48.812;11.762;2022-10-18T13:09:01;6.10;;;4.32;;
22160;SDS011;49035;48.812;11.762;2022-10-18T13:24:46;10.38;;;4.40;;
22160;SDS011;49035;48.812;11.762;2022-10-18T13:27:46;6.45;;;3.80;;
22160;SDS011;49035;48.812;11.762;2022-10-18T13:36:18;10.68;;;3.90;;
22160;SDS011;49035;48.812;11.762;2022-10-18T13:38:45;7.90;;;4.05;;
22160;SDS011;49035;48.812;11.762;2022-10-18T13:44:10;6.50;;;3.60;;
22160;SDS011;49035;48.812;11.762;2022-10-18T14:06:42;7.55;;;3.70;;
22160;SDS011;49035;48.812;11.762;2022-10-18T14:09:18;8.55;;;3.78;;
22160;SDS011;49035;48.812;11.762;2022-10-18T14:17:52;10.63;;;3.38;;
22160;SDS011;49035;48.812;11.762;2022-10-18T14:22:54;10.73;;;3.05;;
22160;SDS011;49035;48.812;11.762;2022-10-18T14:25:29;7.68;;;3.40;;
22160;SDS011;49035;48.812;11.762;2022-10-18T14:36:12;4.00;;;3.10;;
22160;SDS011;49035;48.812;11.762;2022-10-18T14:43:46;7.18;;;3.13;;
22160;SDS011;49035;48.812;11.762;2022-10-18T14:46:17;7.55;;;3.60;;
22160;SDS011;49035;48.812;11.762;2022-10-18T14:49:00;6.05;;;3.17;;
22160;SDS011;49035;48.812;11.762;2022-10-18T14:51:29;7.50;;;3.22;;
22160;SDS011;49035;48.812;11.762;2022-10-18T14:53:59;7.47;;;3.20;;
22160;SDS011;49035;48.812;11.762;2022-10-18T14:56:26;5.30;;;2.72;;
22160;SDS011;49035;48.812;11.762;2022-10-18T14:58:54;5.32;;;3.60;;
22160;SDS011;49035;48.812;11.762;2022-10-18T15:01:23;4.78;;;3.25;;
22160;SDS011;49035;48.812;11.762;2022-10-18T15:03:54;11.73;;;3.90;;
22160;SDS011;49035;48.812;11.762;2022-10-18T15:06:21;6.38;;;3.30;;
22160;SDS011;49035;48.812;11.762;2022-10-18T15:08:48;6.22;;;3.83;;
22160;SDS011;49035;48.812;11.762;2022-10-18T15:11:18;9.40;;;3.50;;
22160;SDS011;49035;48.812;11.762;2022-10-18T15:13:54;5.05;;;3.20;;
22160;SDS011;49035;48.812;11.762;2022-10-18T15:16:30;19.67;;;3.80;;
22160;SDS011;49035;48.812;11.762;2022-10-18T15:18:58;10.68;;;3.30;;
22160;SDS011;49035;48.812;11.762;2022-10-18T15:21:24;6.78;;;3.40;;
22160;SDS011;49035;48.812;11.762;2022-10-18T15:23:50;5.60;;;3.13;;
22160;SDS011;49035;48.812;11.762;2022-10-18T15:26:23;5.65;;;3.00;;
22160;SDS011;49035;48.812;11.762;2022-10-18T15:28:53;4.22;;;3.20;;
22160;SDS011;49035;48.812;11.762;2022-10-18T15:31:23;9.45;;;3.17;;
22160;SDS011;49035;48.812;11.762;2022-10-18T15:34:17;7.38;;;3.50;;
22160;SDS011;49035;48.812;11.762;2022-10-18T15:36:46;9.32;;;3.35;;
22160;SDS011;49035;48.812;11.762;2022-10-18T15:39:14;4.60;;;2.90;;
22160;SDS011;49035;48.812;11.762;2022-10-18T15:41:49;9.43;;;3.38;;
22160;SDS011;49035;48.812;11.762;2022-10-18T15:46:52;6.53;;;3.33;;
22160;SDS011;49035;48.812;11.762;2022-10-18T15:51:49;6.72;;;3.88;;
22160;SDS011;49035;48.812;11.762;2022-10-18T15:54:40;6.95;;;3.13;;
22160;SDS011;49035;48.812;11.762;2022-10-18T15:57:09;7.28;;;3.75;;
22160;SDS011;49035;48.812;11.762;2022-10-18T15:59:35;6.85;;;3.30;;
22160;SDS011;49035;48.812;11.762;2022-10-18T16:02:13;3.83;;;3.40;;
22160;SDS011;49035;48.812;11.762;2022-10-18T16:04:39;4.22;;;3.30;;
22160;SDS011;49035;48.812;11.762;2022-10-18T16:07:05;6.55;;;3.42;;
22160;SDS011;49035;48.812;11.762;2022-10-18T16:09:30;7.70;;;4.10;;
22160;SDS011;49035;48.812;11.762;2022-10-18T16:11:56;6.88;;;3.70;;
22160;SDS011;49035;48.812;11.762;2022-10-18T16:14:22;5.80;;;4.22;;
22160;SDS011;49035;48.812;11.762;2022-10-18T16:16:50;5.70;;;4.07;;
22160;SDS011;49035;48.812;11.762;2022-10-18T16:19:19;6.60;;;3.33;;
22160;SDS011;49035;48.812;11.762;2022-10-18T16:21:48;11.52;;;4.60;;
22160;SDS011;49035;48.812;11.762;2022-10-18T16:24:14;8.02;;;3.85;;
22160;SDS011;49035;48.812;11.762;2022-10-18T16:26:40;5.70;;;3.92;;
22160;SDS011;49035;48.812;11.762;2022-10-18T16:29:06;7.28;;;4.13;;
22160;SDS011;49035;48.812;11.762;2022-10-18T16:31:35;4.47;;;3.70;;
22160;SDS011;49035;48.812;11.762;2022-10-18T16:34:01;6.28;;;3.97;;
22160;SDS011;49035;48.812;11.762;2022-10-18T16:36:28;10.57;;;4.20;;
22160;SDS011;49035;48.812;11.762;2022-10-18T16:38:56;5.38;;;4.28;;
22160;SDS011;49035;48.812;11.762;2022-10-18T16:41:25;7.85;;;4.25;;
22160;SDS011;49035;48.812;11.762;2022-10-18T16:43:51;7.35;;;4.65;;
22160;SDS011;49035;48.812;11.762;2022-10-18T16:46:21;7.47;;;4.38;;
22160;SDS011;49035;48.812;11.762;2022-10-18T16:48:51;7.70;;;5.05;;
22160;SDS011;49035;48.812;11.762;2022-10-18T16:51:17;9.57;;;5.13;;
22160;SDS011;49035;48.812;11.762;2022-10-18T16:53:45;6.75;;;4.43;;
22160;SDS011;49035;48.812;11.762;2022-10-18T16:56:21;6.80;;;4.63;;
22160;SDS011;49035;48.812;11.762;2022-10-18T16:58:50;9.57;;;5.18;;
22160;SDS011;49035;48.812;11.762;2022-10-18T17:01:17;7.47;;;4.68;;
22160;SDS011;49035;48.812;11.762;2022-10-18T17:03:46;7.28;;;4.97;;
22160;SDS011;49035;48.812;11.762;2022-10-18T17:06:22;6.88;;;4.90;;
22160;SDS011;49035;48.812;11.762;2022-10-18T17:08:50;8.45;;;5.35;;
22160;SDS011;49035;48.812;11.762;2022-10-18T17:11:17;8.77;;;5.80;;
22160;SDS011;49035;48.812;11.762;2022-10-18T17:13:44;9.40;;;5.75;;
22160;SDS011;49035;48.812;11.762;2022-10-18T17:16:21;8.82;;;5.57;;
22160;SDS011;49035;48.812;11.762;2022-10-18T17:18:49;10.30;;;6.47;;
22160;SDS011;49035;48.812;11.762;2022-10-18T17:21:15;26.13;;;7.50;;
22160;SDS011;49035;48.812;11.762;2022-10-18T17:23:41;10.18;;;6.53;;
22160;SDS011;49035;48.812;11.762;2022-10-18T17:26:08;10.88;;;7.68;;
22160;SDS011;49035;48.812;11.762;2022-10-18T17:28:38;10.27;;;7.78;;
22160;SDS011;49035;48.812;11.762;2022-10-18T17:31:04;11.55;;;7.72;;
22160;SDS011;49035;48.812;11.762;2022-10-18T17:33:31;12.00;;;6.82;;
22160;SDS011;49035;48.812;11.762;2022-10-18T17:35:56;11.88;;;7.68;;
22160;SDS011;49035;48.812;11.762;2022-10-18T17:38:22;9.70;;;6.32;;
22160;SDS011;49035;48.812;11.762;2022-10-18T17:40:47;9.20;;;6.28;;
22160;SDS011;49035;48.812;11.762;2022-10-18T17:43:13;8.13;;;6.18;;
22160;SDS011;49035;48.812;11.762;2022-10-18T17:45:49;9.77;;;6.28;;
22160;SDS011;49035;48.812;11.762;2022-10-18T17:48:18;13.10;;;6.50;;
22160;SDS011;49035;48.812;11.762;2022-10-18T17:50:44;9.00;;;6.22;;
22160;SDS011;49035;48.812;11.762;2022-10-18T17:53:10;9.65;;;5.53;;